Terminal Aerodrome Forecast
Issued by NWS

Current Version | Previous Version | Text Only | Print | Product List | Glossary On
Versions: 1 2 3 4 5 6 7 8 9 10 11 12 13 14 15 16 17
000
FTUS43 KUNR 282320
TAFGCC
TAF
KGCC 282320Z 2900/2924 33018G28KT P6SM SCT070
     FM290200 32011KT P6SM SCT150
     FM290800 30007KT P6SM FEW150
     FM292000 33017G27KT P6SM FEW250=

USA.gov is the U.S. government's official web portal to all federal, state and local government web resources and services.